PWSweather.com
Personal Weather Stations
Station Observations
ISYDDANM23
Felsted, AabenraaDK 6200

FelstedAabenraaDK 6200

Lat: 54.977066, Lon: 9.507192

Elevation: 135

Station Type: Davis Vantage Pro 2 Plus 24H

http://www.valkaer.dk

High Low Average
Temperature 58.6°F14.8°C 36.1°F2.3°C 48.8°F9.3°C
Dew Point 42.4°F5.8°C 32.9°F0.5°C 37.9°F3.3°C
Winds 11.5 mph 18.5 kmh Calm Calm 4.0 mph WSW6.4 kmh WSW
Wind Gusts 15.0 mph24.1 kmh -- 6.0 mph9.7 kmh
Humidity 90% 48% 68%
Pressure 30.17 in1021.7 mb 29.97 in1014.9 mb -
Precipitation 0.00 in0.0 mm - -
Hour Temp Dew Point Humidity Winds Wind Gusts Pressure Precip Precip Rate Daily Precip Total
12:00 AM 39.2°F4.0°C 35.9°F2.2°C 88% Calm Calm -- 29.97 in1014.9 mb - 0.00 in0.0 mm 0.00 in0.0 mm
12:10 AM 38.1°F3.4°C 34.2°F1.2°C 86% Calm Calm -- 29.97 in1014.9 mb - 0.00 in0.0 mm 0.00 in0.0 mm
12:15 AM 38.4°F3.6°C 34.9°F1.6°C 87% Calm Calm -- 29.97 in1014.9 mb - 0.00 in0.0 mm 0.00 in0.0 mm
12:20 AM 37.5°F3.1°C 33.9°F1.1°C 87% Calm Calm 1.2 mph1.9 kmh 29.97 in1014.9 mb - 0.00 in0.0 mm 0.00 in0.0 mm
12:25 AM 37.1°F2.8°C 33.9°F1.1°C 88% 1.2 mph W1.9 kmh W 1.2 mph1.9 kmh 29.98 in1015.2 mb - 0.00 in0.0 mm 0.00 in0.0 mm
12:30 AM 37.5°F3.1°C 34.5°F1.4°C 89% 1.2 mph W1.9 kmh W 1.2 mph1.9 kmh 29.98 in1015.2 mb - 0.00 in0.0 mm 0.00 in0.0 mm
12:35 AM 37.8°F3.2°C 34.5°F1.4°C 88% Calm Calm 1.2 mph1.9 kmh 29.98 in1015.2 mb - 0.00 in0.0 mm 0.00 in0.0 mm
12:40 AM 38.0°F3.3°C 34.7°F1.5°C 88% Calm Calm -- 29.98 in1015.2 mb - 0.00 in0.0 mm 0.00 in0.0 mm
12:45 AM 37.6°F3.1°C 34.4°F1.3°C 88% 1.2 mph W1.9 kmh W 1.2 mph1.9 kmh 29.98 in1015.2 mb - 0.00 in0.0 mm 0.00 in0.0 mm
12:50 AM 37.9°F3.3°C 34.9°F1.6°C 89% 2.3 mph W3.7 kmh W 3.5 mph5.6 kmh 29.98 in1015.2 mb - 0.00 in0.0 mm 0.00 in0.0 mm
12:55 AM 38.7°F3.7°C 35.5°F1.9°C 88% 2.3 mph WNW3.7 kmh WNW 3.5 mph5.6 kmh 29.98 in1015.2 mb - 0.00 in0.0 mm 0.00 in0.0 mm
01:00 AM 39.6°F4.2°C 36.3°F2.4°C 88% 2.3 mph NW3.7 kmh NW 3.5 mph5.6 kmh 29.98 in1015.2 mb - 0.00 in0.0 mm 0.00 in0.0 mm
01:10 AM 40.9°F4.9°C 37.0°F2.8°C 86% 2.3 mph WNW3.7 kmh WNW 3.5 mph5.6 kmh 29.98 in1015.2 mb - 0.00 in0.0 mm 0.00 in0.0 mm
01:15 AM 40.8°F4.9°C 36.6°F2.6°C 85% 2.3 mph WNW3.7 kmh WNW 2.3 mph3.7 kmh 29.99 in1015.6 mb - 0.00 in0.0 mm 0.00 in0.0 mm
01:20 AM 40.2°F4.6°C 35.8°F2.1°C 84% 2.3 mph W3.7 kmh W 3.5 mph5.6 kmh 29.99 in1015.6 mb - 0.00 in0.0 mm 0.00 in0.0 mm
01:25 AM 40.1°F4.5°C 36.2°F2.3°C 86% 1.2 mph W1.9 kmh W 2.3 mph3.7 kmh 29.99 in1015.6 mb - 0.00 in0.0 mm 0.00 in0.0 mm
01:30 AM 40.6°F4.8°C 36.7°F2.6°C 86% 1.2 mph W1.9 kmh W 2.3 mph3.7 kmh 29.99 in1015.6 mb - 0.00 in0.0 mm 0.00 in0.0 mm
01:35 AM 40.7°F4.8°C 36.6°F2.6°C 85% 1.2 mph W1.9 kmh W 2.3 mph3.7 kmh 29.99 in1015.6 mb - 0.00 in0.0 mm 0.00 in0.0 mm
01:40 AM 39.6°F4.2°C 35.2°F1.8°C 84% Calm Calm -- 29.99 in1015.6 mb - 0.00 in0.0 mm 0.00 in0.0 mm
01:45 AM 38.6°F3.7°C 34.4°F1.3°C 85% Calm Calm -- 29.99 in1015.6 mb - 0.00 in0.0 mm 0.00 in0.0 mm
01:50 AM 37.9°F3.3°C 34.4°F1.3°C 87% Calm Calm -- 29.99 in1015.6 mb - 0.00 in0.0 mm 0.00 in0.0 mm
01:55 AM 37.7°F3.2°C 34.5°F1.4°C 88% Calm Calm -- 29.99 in1015.6 mb - 0.00 in0.0 mm 0.00 in0.0 mm
02:00 AM 38.4°F3.6°C 35.2°F1.8°C 88% Calm Calm -- 29.99 in1015.6 mb - 0.00 in0.0 mm 0.00 in0.0 mm
02:10 AM 38.8°F3.8°C 35.3°F1.8°C 87% 2.3 mph WNW3.7 kmh WNW 3.5 mph5.6 kmh 30.00 in1015.9 mb - 0.00 in0.0 mm 0.00 in0.0 mm
02:15 AM 38.8°F3.8°C 35.2°F1.8°C 87% 2.3 mph WNW3.7 kmh WNW 3.5 mph5.6 kmh 30.00 in1015.9 mb - 0.00 in0.0 mm 0.00 in0.0 mm
02:20 AM 38.7°F3.7°C 35.2°F1.8°C 87% 2.3 mph W3.7 kmh W 2.3 mph3.7 kmh 30.00 in1015.9 mb - 0.00 in0.0 mm 0.00 in0.0 mm
02:25 AM 37.8°F3.2°C 34.3°F1.3°C 87% 1.2 mph W1.9 kmh W 2.3 mph3.7 kmh 30.00 in1015.9 mb - 0.00 in0.0 mm 0.00 in0.0 mm
02:30 AM 38.4°F3.6°C 35.2°F1.8°C 88% 1.2 mph W1.9 kmh W 2.3 mph3.7 kmh 30.00 in1015.9 mb - 0.00 in0.0 mm 0.00 in0.0 mm
02:35 AM 38.6°F3.7°C 35.3°F1.8°C 88% 1.2 mph W1.9 kmh W 2.3 mph3.7 kmh 30.00 in1015.9 mb - 0.00 in0.0 mm 0.00 in0.0 mm
02:40 AM 38.8°F3.8°C 35.3°F1.8°C 87% 2.3 mph WNW3.7 kmh WNW 3.5 mph5.6 kmh 30.01 in1016.3 mb - 0.00 in0.0 mm 0.00 in0.0 mm
02:45 AM 38.9°F3.8°C 35.6°F2.0°C 88% 2.3 mph WNW3.7 kmh WNW 3.5 mph5.6 kmh 30.01 in1016.3 mb - 0.00 in0.0 mm 0.00 in0.0 mm
02:50 AM 38.5°F3.6°C 35.0°F1.7°C 87% 2.3 mph WNW3.7 kmh WNW 3.5 mph5.6 kmh 30.01 in1016.3 mb - 0.00 in0.0 mm 0.00 in0.0 mm
02:55 AM 38.4°F3.6°C 34.9°F1.6°C 87% 2.3 mph WNW3.7 kmh WNW 3.5 mph5.6 kmh 30.01 in1016.3 mb - 0.00 in0.0 mm 0.00 in0.0 mm
03:00 AM 38.5°F3.6°C 35.0°F1.7°C 87% 2.3 mph WNW3.7 kmh WNW 3.5 mph5.6 kmh 30.01 in1016.3 mb - 0.00 in0.0 mm 0.00 in0.0 mm
03:10 AM 38.5°F3.6°C 35.0°F1.7°C 87% 1.2 mph WNW1.9 kmh WNW 2.3 mph3.7 kmh 30.02 in1016.6 mb - 0.00 in0.0 mm 0.00 in0.0 mm
03:15 AM 38.5°F3.6°C 34.7°F1.5°C 86% 2.3 mph WNW3.7 kmh WNW 3.5 mph5.6 kmh 30.01 in1016.3 mb - 0.00 in0.0 mm 0.00 in0.0 mm
03:20 AM 38.2°F3.4°C 34.1°F1.2°C 85% 2.3 mph WNW3.7 kmh WNW 3.5 mph5.6 kmh 30.02 in1016.6 mb - 0.00 in0.0 mm 0.00 in0.0 mm
03:25 AM 38.2°F3.4°C 34.4°F1.3°C 86% 2.3 mph WNW3.7 kmh WNW 3.5 mph5.6 kmh 30.02 in1016.6 mb - 0.00 in0.0 mm 0.00 in0.0 mm
03:30 AM 38.5°F3.6°C 34.7°F1.5°C 86% 2.3 mph WNW3.7 kmh WNW 3.5 mph5.6 kmh 30.02 in1016.6 mb - 0.00 in0.0 mm 0.00 in0.0 mm
03:35 AM 38.8°F3.8°C 34.7°F1.5°C 85% 2.3 mph WNW3.7 kmh WNW 3.5 mph5.6 kmh 30.02 in1016.6 mb - 0.00 in0.0 mm 0.00 in0.0 mm
03:40 AM 39.0°F3.9°C 34.6°F1.4°C 84% 2.3 mph W3.7 kmh W 3.5 mph5.6 kmh 30.02 in1016.6 mb - 0.00 in0.0 mm 0.00 in0.0 mm
03:45 AM 38.4°F3.6°C 34.0°F1.1°C 84% 2.3 mph W3.7 kmh W 3.5 mph5.6 kmh 30.02 in1016.6 mb - 0.00 in0.0 mm 0.00 in0.0 mm
03:50 AM 38.1°F3.4°C 34.0°F1.1°C 85% 2.3 mph W3.7 kmh W 3.5 mph5.6 kmh 30.02 in1016.6 mb - 0.00 in0.0 mm 0.00 in0.0 mm
03:55 AM 38.0°F3.3°C 33.9°F1.1°C 85% 2.3 mph W3.7 kmh W 3.5 mph5.6 kmh 30.02 in1016.6 mb - 0.00 in0.0 mm 0.00 in0.0 mm
04:00 AM 37.8°F3.2°C 33.7°F0.9°C 85% 3.5 mph W5.6 kmh W 3.5 mph5.6 kmh 30.02 in1016.6 mb - 0.00 in0.0 mm 0.00 in0.0 mm
04:10 AM 37.6°F3.1°C 33.8°F1.0°C 86% 2.3 mph W3.7 kmh W 3.5 mph5.6 kmh 30.02 in1016.6 mb - 0.00 in0.0 mm 0.00 in0.0 mm
04:15 AM 37.7°F3.2°C 33.9°F1.1°C 86% 2.3 mph W3.7 kmh W 3.5 mph5.6 kmh 30.03 in1016.9 mb - 0.00 in0.0 mm 0.00 in0.0 mm
04:20 AM 37.3°F2.9°C 33.5°F0.8°C 86% 2.3 mph W3.7 kmh W 3.5 mph5.6 kmh 30.02 in1016.6 mb - 0.00 in0.0 mm 0.00 in0.0 mm
04:25 AM 37.4°F3.0°C 33.9°F1.1°C 87% 2.3 mph W3.7 kmh W 3.5 mph5.6 kmh 30.03 in1016.9 mb - 0.00 in0.0 mm 0.00 in0.0 mm
04:30 AM 37.7°F3.2°C 34.2°F1.2°C 87% 2.3 mph W3.7 kmh W 2.3 mph3.7 kmh 30.02 in1016.6 mb - 0.00 in0.0 mm 0.00 in0.0 mm
04:35 AM 37.6°F3.1°C 34.1°F1.2°C 87% 2.3 mph W3.7 kmh W 2.3 mph3.7 kmh 30.03 in1016.9 mb - 0.00 in0.0 mm 0.00 in0.0 mm
04:40 AM 37.8°F3.2°C 34.3°F1.3°C 87% 1.2 mph W1.9 kmh W 2.3 mph3.7 kmh 30.03 in1016.9 mb - 0.00 in0.0 mm 0.00 in0.0 mm
04:45 AM 37.0°F2.8°C 33.5°F0.8°C 87% Calm Calm -- 30.03 in1016.9 mb - 0.00 in0.0 mm 0.00 in0.0 mm
04:50 AM 37.1°F2.8°C 33.8°F1.0°C 88% Calm Calm -- 30.03 in1016.9 mb - 0.00 in0.0 mm 0.00 in0.0 mm
04:55 AM 36.8°F2.7°C 33.6°F0.9°C 88% Calm Calm -- 30.04 in1017.3 mb - 0.00 in0.0 mm 0.00 in0.0 mm
05:00 AM 36.1°F2.3°C 32.9°F0.5°C 88% Calm Calm -- 30.04 in1017.3 mb - 0.00 in0.0 mm 0.00 in0.0 mm
05:10 AM 36.8°F2.7°C 33.8°F1.0°C 89% Calm Calm -- 30.05 in1017.6 mb - 0.00 in0.0 mm 0.00 in0.0 mm
05:15 AM 37.5°F3.1°C 34.5°F1.4°C 89% Calm Calm -- 30.04 in1017.3 mb - 0.00 in0.0 mm 0.00 in0.0 mm
05:20 AM 38.0°F3.3°C 35.3°F1.8°C 90% Calm Calm -- 30.04 in1017.3 mb - 0.00 in0.0 mm 0.00 in0.0 mm
05:25 AM 38.6°F3.7°C 35.9°F2.2°C 90% 2.3 mph W3.7 kmh W 3.5 mph5.6 kmh 30.05 in1017.6 mb - 0.00 in0.0 mm 0.00 in0.0 mm
05:30 AM 39.1°F3.9°C 36.4°F2.4°C 90% 2.3 mph WSW3.7 kmh WSW 3.5 mph5.6 kmh 30.05 in1017.6 mb - 0.00 in0.0 mm 0.00 in0.0 mm
05:35 AM 39.7°F4.3°C 37.0°F2.8°C 90% 1.2 mph W1.9 kmh W 2.3 mph3.7 kmh 30.05 in1017.6 mb - 0.00 in0.0 mm 0.00 in0.0 mm
05:40 AM 40.3°F4.6°C 37.3°F2.9°C 89% 2.3 mph WNW3.7 kmh WNW 2.3 mph3.7 kmh 30.05 in1017.6 mb - 0.00 in0.0 mm 0.00 in0.0 mm
05:45 AM 40.8°F4.9°C 37.6°F3.1°C 88% 2.3 mph W3.7 kmh W 3.5 mph5.6 kmh 30.05 in1017.6 mb - 0.00 in0.0 mm 0.00 in0.0 mm
05:50 AM 41.3°F5.2°C 37.5°F3.1°C 86% 2.3 mph W3.7 kmh W 3.5 mph5.6 kmh 30.06 in1017.9 mb - 0.00 in0.0 mm 0.00 in0.0 mm
05:55 AM 41.8°F5.4°C 37.6°F3.1°C 85% 2.3 mph W3.7 kmh W 2.3 mph3.7 kmh 30.06 in1017.9 mb - 0.00 in0.0 mm 0.00 in0.0 mm
06:00 AM 42.4°F5.8°C 38.2°F3.4°C 85% 2.3 mph W3.7 kmh W 3.5 mph5.6 kmh 30.06 in1017.9 mb - 0.00 in0.0 mm 0.00 in0.0 mm
06:10 AM 43.3°F6.3°C 38.5°F3.6°C 83% 3.5 mph W5.6 kmh W 3.5 mph5.6 kmh 30.07 in1018.3 mb - 0.00 in0.0 mm 0.00 in0.0 mm
06:15 AM 43.8°F6.6°C 38.6°F3.7°C 82% 3.5 mph W5.6 kmh W 3.5 mph5.6 kmh 30.07 in1018.3 mb - 0.00 in0.0 mm 0.00 in0.0 mm
06:20 AM 44.3°F6.8°C 38.9°F3.8°C 81% 2.3 mph W3.7 kmh W 3.5 mph5.6 kmh 30.07 in1018.3 mb - 0.00 in0.0 mm 0.00 in0.0 mm
06:25 AM 44.9°F7.2°C 39.4°F4.1°C 81% 3.5 mph WSW5.6 kmh WSW 4.6 mph7.4 kmh 30.07 in1018.3 mb - 0.00 in0.0 mm 0.00 in0.0 mm
06:30 AM 45.3°F7.4°C 39.5°F4.2°C 80% 2.3 mph WSW3.7 kmh WSW 4.6 mph7.4 kmh 30.07 in1018.3 mb - 0.00 in0.0 mm 0.00 in0.0 mm
06:35 AM 45.6°F7.6°C 39.8°F4.3°C 80% 3.5 mph WSW5.6 kmh WSW 4.6 mph7.4 kmh 30.07 in1018.3 mb - 0.00 in0.0 mm 0.00 in0.0 mm
06:40 AM 46.0°F7.8°C 40.5°F4.7°C 81% 2.3 mph WSW3.7 kmh WSW 3.5 mph5.6 kmh 30.07 in1018.3 mb - 0.00 in0.0 mm 0.00 in0.0 mm
06:45 AM 46.4°F8.0°C 40.2°F4.6°C 79% 3.5 mph W5.6 kmh W 3.5 mph5.6 kmh 30.08 in1018.6 mb - 0.00 in0.0 mm 0.00 in0.0 mm
06:50 AM 46.8°F8.2°C 40.0°F4.4°C 77% 3.5 mph WSW5.6 kmh WSW 5.8 mph9.3 kmh 30.08 in1018.6 mb - 0.00 in0.0 mm 0.00 in0.0 mm
06:55 AM 46.9°F8.3°C 39.7°F4.3°C 76% 2.3 mph W3.7 kmh W 3.5 mph5.6 kmh 30.08 in1018.6 mb - 0.00 in0.0 mm 0.00 in0.0 mm
07:00 AM 47.4°F8.6°C 39.8°F4.3°C 75% 2.3 mph WSW3.7 kmh WSW 4.6 mph7.4 kmh 30.09 in1019.0 mb - 0.00 in0.0 mm 0.00 in0.0 mm
07:10 AM 47.9°F8.8°C 40.3°F4.6°C 75% 2.3 mph W3.7 kmh W 4.6 mph7.4 kmh 30.09 in1019.0 mb - 0.00 in0.0 mm 0.00 in0.0 mm
07:15 AM 48.2°F9.0°C 39.2°F4.0°C 71% 3.5 mph WNW5.6 kmh WNW 4.6 mph7.4 kmh 30.09 in1019.0 mb - 0.00 in0.0 mm 0.00 in0.0 mm
07:20 AM 48.6°F9.2°C 40.0°F4.4°C 72% 3.5 mph W5.6 kmh W 8.1 mph13.0 kmh 30.09 in1019.0 mb - 0.00 in0.0 mm 0.00 in0.0 mm
07:25 AM 48.8°F9.3°C 39.8°F4.3°C 71% 5.8 mph W9.3 kmh W 10.4 mph16.7 kmh 30.09 in1019.0 mb - 0.00 in0.0 mm 0.00 in0.0 mm
07:30 AM 48.9°F9.4°C 39.9°F4.4°C 71% 4.6 mph W7.4 kmh W 3.5 mph5.6 kmh 30.09 in1019.0 mb - 0.00 in0.0 mm 0.00 in0.0 mm
07:35 AM 49.3°F9.6°C 39.5°F4.2°C 69% 6.9 mph W11.1 kmh W 8.1 mph13.0 kmh 30.09 in1019.0 mb - 0.00 in0.0 mm 0.00 in0.0 mm
07:40 AM 49.6°F9.8°C 39.5°F4.2°C 68% 4.6 mph WNW7.4 kmh WNW 4.6 mph7.4 kmh 30.10 in1019.3 mb - 0.00 in0.0 mm 0.00 in0.0 mm
07:45 AM 49.9°F9.9°C 40.1°F4.5°C 69% 5.8 mph WNW9.3 kmh WNW 6.9 mph11.1 kmh 30.10 in1019.3 mb - 0.00 in0.0 mm 0.00 in0.0 mm
07:50 AM 50.1°F10.1°C 39.6°F4.2°C 67% 8.1 mph WNW13.0 kmh WNW 10.4 mph16.7 kmh 30.10 in1019.3 mb - 0.00 in0.0 mm 0.00 in0.0 mm
07:55 AM 49.5°F9.7°C 39.4°F4.1°C 68% 5.8 mph WNW9.3 kmh WNW 9.2 mph14.8 kmh 30.10 in1019.3 mb - 0.00 in0.0 mm 0.00 in0.0 mm
08:00 AM 50.5°F10.3°C 39.6°F4.2°C 66% 6.9 mph NW11.1 kmh NW 11.5 mph18.5 kmh 30.10 in1019.3 mb - 0.00 in0.0 mm 0.00 in0.0 mm
08:10 AM 51.3°F10.7°C 39.5°F4.2°C 64% 8.1 mph W13.0 kmh W 9.2 mph14.8 kmh 30.11 in1019.6 mb - 0.00 in0.0 mm 0.00 in0.0 mm
08:15 AM 51.4°F10.8°C 40.0°F4.4°C 65% 8.1 mph W13.0 kmh W 11.5 mph18.5 kmh 30.10 in1019.3 mb - 0.00 in0.0 mm 0.00 in0.0 mm
08:20 AM 51.0°F10.6°C 39.2°F4.0°C 64% 8.1 mph W13.0 kmh W 8.1 mph13.0 kmh 30.11 in1019.6 mb - 0.00 in0.0 mm 0.00 in0.0 mm
08:25 AM 51.2°F10.7°C 37.8°F3.2°C 60% 9.2 mph W14.8 kmh W 11.5 mph18.5 kmh 30.11 in1019.6 mb - 0.00 in0.0 mm 0.00 in0.0 mm
08:30 AM 51.4°F10.8°C 38.4°F3.6°C 61% 6.9 mph WNW11.1 kmh WNW 8.1 mph13.0 kmh 30.11 in1019.6 mb - 0.00 in0.0 mm 0.00 in0.0 mm
08:35 AM 52.1°F11.2°C 38.2°F3.4°C 59% 8.1 mph WNW13.0 kmh WNW 10.4 mph16.7 kmh 30.11 in1019.6 mb - 0.00 in0.0 mm 0.00 in0.0 mm
08:40 AM 51.2°F10.7°C 36.9°F2.7°C 58% 9.2 mph WNW14.8 kmh WNW 11.5 mph18.5 kmh 30.11 in1019.6 mb - 0.00 in0.0 mm 0.00 in0.0 mm
08:45 AM 52.1°F11.2°C 39.1°F3.9°C 61% 6.9 mph WNW11.1 kmh WNW 11.5 mph18.5 kmh 30.11 in1019.6 mb - 0.00 in0.0 mm 0.00 in0.0 mm
08:50 AM 52.6°F11.4°C 38.2°F3.4°C 58% 6.9 mph W11.1 kmh W 9.2 mph14.8 kmh 30.11 in1019.6 mb - 0.00 in0.0 mm 0.00 in0.0 mm
08:55 AM 53.3°F11.8°C 39.8°F4.3°C 60% 5.8 mph NW9.3 kmh NW 11.5 mph18.5 kmh 30.11 in1019.6 mb - 0.00 in0.0 mm 0.00 in0.0 mm
09:00 AM 52.1°F11.2°C 37.3°F2.9°C 57% 8.1 mph W13.0 kmh W 11.5 mph18.5 kmh 30.11 in1019.6 mb - 0.00 in0.0 mm 0.00 in0.0 mm
09:10 AM 50.4°F10.2°C 37.0°F2.8°C 60% 8.1 mph NW13.0 kmh NW 11.5 mph18.5 kmh 30.12 in1020.0 mb - 0.00 in0.0 mm 0.00 in0.0 mm
09:15 AM 50.3°F10.2°C 38.2°F3.4°C 63% 5.8 mph WNW9.3 kmh WNW 8.1 mph13.0 kmh 30.12 in1020.0 mb - 0.00 in0.0 mm 0.00 in0.0 mm
09:20 AM 50.2°F10.1°C 38.1°F3.4°C 63% 6.9 mph WNW11.1 kmh WNW 10.4 mph16.7 kmh 30.12 in1020.0 mb - 0.00 in0.0 mm 0.00 in0.0 mm
09:25 AM 51.0°F10.6°C 38.0°F3.3°C 61% 6.9 mph WNW11.1 kmh WNW 9.2 mph14.8 kmh 30.12 in1020.0 mb - 0.00 in0.0 mm 0.00 in0.0 mm
09:30 AM 52.5°F11.4°C 39.9°F4.4°C 62% 3.5 mph WNW5.6 kmh WNW 4.6 mph7.4 kmh 30.12 in1020.0 mb - 0.00 in0.0 mm 0.00 in0.0 mm
09:35 AM 53.2°F11.8°C 39.6°F4.2°C 60% 4.6 mph W7.4 kmh W 6.9 mph11.1 kmh 30.12 in1020.0 mb - 0.00 in0.0 mm 0.00 in0.0 mm
09:40 AM 53.0°F11.7°C 39.0°F3.9°C 59% 5.8 mph W9.3 kmh W 6.9 mph11.1 kmh 30.12 in1020.0 mb - 0.00 in0.0 mm 0.00 in0.0 mm
09:45 AM 54.2°F12.3°C 38.9°F3.8°C 56% 8.1 mph WNW13.0 kmh WNW 11.5 mph18.5 kmh 30.12 in1020.0 mb - 0.00 in0.0 mm 0.00 in0.0 mm
09:50 AM 54.7°F12.6°C 38.4°F3.6°C 54% 6.9 mph NW11.1 kmh NW 9.2 mph14.8 kmh 30.12 in1020.0 mb - 0.00 in0.0 mm 0.00 in0.0 mm
09:55 AM 53.7°F12.1°C 38.4°F3.6°C 56% 4.6 mph NW7.4 kmh NW 8.1 mph13.0 kmh 30.12 in1020.0 mb - 0.00 in0.0 mm 0.00 in0.0 mm
10:00 AM 52.0°F11.1°C 39.0°F3.9°C 61% 11.5 mph NW18.5 kmh NW 13.8 mph22.2 kmh 30.13 in1020.3 mb - 0.00 in0.0 mm 0.00 in0.0 mm
10:10 AM 51.7°F10.9°C 39.5°F4.2°C 63% 9.2 mph WNW14.8 kmh WNW 12.7 mph20.4 kmh 30.13 in1020.3 mb - 0.00 in0.0 mm 0.00 in0.0 mm
10:15 AM 52.0°F11.1°C 40.5°F4.7°C 65% 6.9 mph WNW11.1 kmh WNW 12.7 mph20.4 kmh 30.13 in1020.3 mb - 0.00 in0.0 mm 0.00 in0.0 mm
10:20 AM 53.8°F12.1°C 41.9°F5.5°C 64% 8.1 mph NW13.0 kmh NW 10.4 mph16.7 kmh 30.14 in1020.7 mb - 0.00 in0.0 mm 0.00 in0.0 mm
10:25 AM 53.7°F12.1°C 40.2°F4.6°C 60% 6.9 mph NW11.1 kmh NW 11.5 mph18.5 kmh 30.14 in1020.7 mb - 0.00 in0.0 mm 0.00 in0.0 mm
10:30 AM 53.9°F12.2°C 39.4°F4.1°C 58% 8.1 mph NW13.0 kmh NW 12.7 mph20.4 kmh 30.14 in1020.7 mb - 0.00 in0.0 mm 0.00 in0.0 mm
10:35 AM 54.1°F12.3°C 39.7°F4.3°C 58% 6.9 mph WNW11.1 kmh WNW 12.7 mph20.4 kmh 30.14 in1020.7 mb - 0.00 in0.0 mm 0.00 in0.0 mm
10:40 AM 54.4°F12.4°C 38.6°F3.7°C 55% 5.8 mph NW9.3 kmh NW 10.4 mph16.7 kmh 30.14 in1020.7 mb - 0.00 in0.0 mm 0.00 in0.0 mm
10:45 AM 54.4°F12.4°C 36.6°F2.6°C 51% 8.1 mph WNW13.0 kmh WNW 9.2 mph14.8 kmh 30.14 in1020.7 mb - 0.00 in0.0 mm 0.00 in0.0 mm
10:50 AM 54.5°F12.5°C 37.7°F3.2°C 53% 8.1 mph WSW13.0 kmh WSW 11.5 mph18.5 kmh 30.14 in1020.7 mb - 0.00 in0.0 mm 0.00 in0.0 mm
10:55 AM 54.7°F12.6°C 36.4°F2.4°C 50% 6.9 mph WNW11.1 kmh WNW 9.2 mph14.8 kmh 30.14 in1020.7 mb - 0.00 in0.0 mm 0.00 in0.0 mm
11:00 AM 55.1°F12.8°C 38.3°F3.5°C 53% 6.9 mph W11.1 kmh W 10.4 mph16.7 kmh 30.14 in1020.7 mb - 0.00 in0.0 mm 0.00 in0.0 mm
11:10 AM 55.1°F12.8°C 39.3°F4.1°C 55% 9.2 mph WNW14.8 kmh WNW 11.5 mph18.5 kmh 30.14 in1020.7 mb - 0.00 in0.0 mm 0.00 in0.0 mm
11:15 AM 53.2°F11.8°C 38.8°F3.8°C 58% 8.1 mph WSW13.0 kmh WSW 12.7 mph20.4 kmh 30.14 in1020.7 mb - 0.00 in0.0 mm 0.00 in0.0 mm
11:20 AM 52.7°F11.5°C 38.8°F3.8°C 59% 5.8 mph WSW9.3 kmh WSW 8.1 mph13.0 kmh 30.15 in1021.0 mb - 0.00 in0.0 mm 0.00 in0.0 mm
11:25 AM 54.4°F12.4°C 39.9°F4.4°C 58% 8.1 mph WSW13.0 kmh WSW 11.5 mph18.5 kmh 30.15 in1021.0 mb - 0.00 in0.0 mm 0.00 in0.0 mm
11:30 AM 55.3°F12.9°C 39.4°F4.1°C 55% 6.9 mph WSW11.1 kmh WSW 9.2 mph14.8 kmh 30.15 in1021.0 mb - 0.00 in0.0 mm 0.00 in0.0 mm
11:35 AM 56.0°F13.3°C 38.6°F3.7°C 52% 5.8 mph WSW9.3 kmh WSW 9.2 mph14.8 kmh 30.14 in1020.7 mb - 0.00 in0.0 mm 0.00 in0.0 mm
11:40 AM 55.6°F13.1°C 39.2°F4.0°C 54% 4.6 mph WSW7.4 kmh WSW 8.1 mph13.0 kmh 30.14 in1020.7 mb - 0.00 in0.0 mm 0.00 in0.0 mm
11:45 AM 53.7°F12.1°C 39.3°F4.1°C 58% 8.1 mph W13.0 kmh W 11.5 mph18.5 kmh 30.15 in1021.0 mb - 0.00 in0.0 mm 0.00 in0.0 mm
11:50 AM 53.2°F11.8°C 40.1°F4.5°C 61% 8.1 mph WSW13.0 kmh WSW 11.5 mph18.5 kmh 30.15 in1021.0 mb - 0.00 in0.0 mm 0.00 in0.0 mm
11:55 AM 53.1°F11.7°C 38.7°F3.7°C 58% 4.6 mph WNW7.4 kmh WNW 6.9 mph11.1 kmh 30.15 in1021.0 mb - 0.00 in0.0 mm 0.00 in0.0 mm
12:00 PM 53.6°F12.0°C 40.5°F4.7°C 61% 8.1 mph WSW13.0 kmh WSW 11.5 mph18.5 kmh 30.15 in1021.0 mb - 0.00 in0.0 mm 0.00 in0.0 mm
12:10 PM 56.2°F13.4°C 40.2°F4.6°C 55% 6.9 mph W11.1 kmh W 9.2 mph14.8 kmh 30.15 in1021.0 mb - 0.00 in0.0 mm 0.00 in0.0 mm
12:15 PM 54.8°F12.7°C 39.4°F4.1°C 56% 5.8 mph WSW9.3 kmh WSW 11.5 mph18.5 kmh 30.15 in1021.0 mb - 0.00 in0.0 mm 0.00 in0.0 mm
12:20 PM 55.7°F13.2°C 38.9°F3.8°C 53% 4.6 mph SW7.4 kmh SW 8.1 mph13.0 kmh 30.15 in1021.0 mb - 0.00 in0.0 mm 0.00 in0.0 mm
12:25 PM 54.6°F12.6°C 37.3°F2.9°C 52% 8.1 mph WNW13.0 kmh WNW 10.4 mph16.7 kmh 30.15 in1021.0 mb - 0.00 in0.0 mm 0.00 in0.0 mm
12:30 PM 54.3°F12.4°C 39.8°F4.3°C 58% 8.1 mph W13.0 kmh W 8.1 mph13.0 kmh 30.15 in1021.0 mb - 0.00 in0.0 mm 0.00 in0.0 mm
12:35 PM 56.5°F13.6°C 40.5°F4.7°C 55% 9.2 mph W14.8 kmh W 15.0 mph24.1 kmh 30.16 in1021.3 mb - 0.00 in0.0 mm 0.00 in0.0 mm
12:40 PM 57.0°F13.9°C 41.0°F5.0°C 55% 8.1 mph W13.0 kmh W 11.5 mph18.5 kmh 30.16 in1021.3 mb - 0.00 in0.0 mm 0.00 in0.0 mm
12:45 PM 56.8°F13.8°C 40.4°F4.7°C 54% 5.8 mph N9.3 kmh N 9.2 mph14.8 kmh 30.16 in1021.3 mb - 0.00 in0.0 mm 0.00 in0.0 mm
12:50 PM 56.9°F13.8°C 39.0°F3.9°C 51% 6.9 mph W11.1 kmh W 8.1 mph13.0 kmh 30.16 in1021.3 mb - 0.00 in0.0 mm 0.00 in0.0 mm
12:55 PM 57.1°F13.9°C 40.1°F4.5°C 53% 4.6 mph WSW7.4 kmh WSW 6.9 mph11.1 kmh 30.16 in1021.3 mb - 0.00 in0.0 mm 0.00 in0.0 mm
01:00 PM 56.8°F13.8°C 41.8°F5.4°C 57% 8.1 mph WSW13.0 kmh WSW 10.4 mph16.7 kmh 30.16 in1021.3 mb - 0.00 in0.0 mm 0.00 in0.0 mm
01:10 PM 55.1°F12.8°C 39.2°F4.0°C 55% 4.6 mph WNW7.4 kmh WNW 8.1 mph13.0 kmh 30.16 in1021.3 mb - 0.00 in0.0 mm 0.00 in0.0 mm
01:15 PM 56.1°F13.4°C 39.7°F4.3°C 54% 5.8 mph W9.3 kmh W 9.2 mph14.8 kmh 30.16 in1021.3 mb - 0.00 in0.0 mm 0.00 in0.0 mm
01:20 PM 57.2°F14.0°C 41.2°F5.1°C 55% 5.8 mph W9.3 kmh W 10.4 mph16.7 kmh 30.16 in1021.3 mb - 0.00 in0.0 mm 0.00 in0.0 mm
01:25 PM 55.2°F12.9°C 39.3°F4.1°C 55% 5.8 mph W9.3 kmh W 10.4 mph16.7 kmh 30.16 in1021.3 mb - 0.00 in0.0 mm 0.00 in0.0 mm
01:30 PM 54.5°F12.5°C 39.1°F3.9°C 56% 3.5 mph WNW5.6 kmh WNW 5.8 mph9.3 kmh 30.16 in1021.3 mb - 0.00 in0.0 mm 0.00 in0.0 mm
01:35 PM 55.6°F13.1°C 39.2°F4.0°C 54% 5.8 mph WNW9.3 kmh WNW 9.2 mph14.8 kmh 30.16 in1021.3 mb - 0.00 in0.0 mm 0.00 in0.0 mm
01:40 PM 57.7°F14.3°C 40.2°F4.6°C 52% 8.1 mph W13.0 kmh W 12.7 mph20.4 kmh 30.16 in1021.3 mb - 0.00 in0.0 mm 0.00 in0.0 mm
01:45 PM 55.5°F13.1°C 38.1°F3.4°C 52% 8.1 mph W13.0 kmh W 11.5 mph18.5 kmh 30.16 in1021.3 mb - 0.00 in0.0 mm 0.00 in0.0 mm
01:50 PM 54.4°F12.4°C 38.1°F3.4°C 54% 5.8 mph WNW9.3 kmh WNW 10.4 mph16.7 kmh 30.16 in1021.3 mb - 0.00 in0.0 mm 0.00 in0.0 mm
01:55 PM 54.2°F12.3°C 38.8°F3.8°C 56% 3.5 mph NW5.6 kmh NW 3.5 mph5.6 kmh 30.16 in1021.3 mb - 0.00 in0.0 mm 0.00 in0.0 mm
02:00 PM 54.4°F12.4°C 38.1°F3.4°C 54% 2.3 mph WSW3.7 kmh WSW 5.8 mph9.3 kmh 30.16 in1021.3 mb - 0.00 in0.0 mm 0.00 in0.0 mm
02:10 PM 54.4°F12.4°C 39.1°F3.9°C 56% 4.6 mph WNW7.4 kmh WNW 5.8 mph9.3 kmh 30.16 in1021.3 mb - 0.00 in0.0 mm 0.00 in0.0 mm
02:15 PM 57.6°F14.2°C 41.6°F5.3°C 55% 4.6 mph WNW7.4 kmh WNW 8.1 mph13.0 kmh 30.16 in1021.3 mb - 0.00 in0.0 mm 0.00 in0.0 mm
02:20 PM 56.7°F13.7°C 39.2°F4.0°C 52% 6.9 mph NW11.1 kmh NW 10.4 mph16.7 kmh 30.16 in1021.3 mb - 0.00 in0.0 mm 0.00 in0.0 mm
02:25 PM 55.8°F13.2°C 39.9°F4.4°C 55% 2.3 mph NW3.7 kmh NW 3.5 mph5.6 kmh 30.16 in1021.3 mb - 0.00 in0.0 mm 0.00 in0.0 mm
02:30 PM 56.4°F13.6°C 40.4°F4.7°C 55% 5.8 mph WNW9.3 kmh WNW 10.4 mph16.7 kmh 30.16 in1021.3 mb - 0.00 in0.0 mm 0.00 in0.0 mm
02:35 PM 55.4°F13.0°C 39.0°F3.9°C 54% 3.5 mph WSW5.6 kmh WSW 3.5 mph5.6 kmh 30.16 in1021.3 mb - 0.00 in0.0 mm 0.00 in0.0 mm
02:40 PM 55.6°F13.1°C 39.2°F4.0°C 54% 10.4 mph W16.7 kmh W 12.7 mph20.4 kmh 30.16 in1021.3 mb - 0.00 in0.0 mm 0.00 in0.0 mm
02:45 PM 55.8°F13.2°C 39.8°F4.3°C 55% 8.1 mph W13.0 kmh W 11.5 mph18.5 kmh 30.17 in1021.7 mb - 0.00 in0.0 mm 0.00 in0.0 mm
02:50 PM 55.2°F12.9°C 39.3°F4.1°C 55% 6.9 mph W11.1 kmh W 10.4 mph16.7 kmh 30.16 in1021.3 mb - 0.00 in0.0 mm 0.00 in0.0 mm
02:55 PM 54.9°F12.7°C 39.0°F3.9°C 55% 6.9 mph W11.1 kmh W 9.2 mph14.8 kmh 30.16 in1021.3 mb - 0.00 in0.0 mm 0.00 in0.0 mm
03:00 PM 54.4°F12.4°C 38.6°F3.7°C 55% 2.3 mph WSW3.7 kmh WSW 3.5 mph5.6 kmh 30.17 in1021.7 mb - 0.00 in0.0 mm 0.00 in0.0 mm
03:10 PM 55.0°F12.8°C 38.6°F3.7°C 54% 6.9 mph NW11.1 kmh NW 6.9 mph11.1 kmh 30.16 in1021.3 mb - 0.00 in0.0 mm 0.00 in0.0 mm
03:15 PM 56.2°F13.4°C 39.8°F4.3°C 54% 8.1 mph W13.0 kmh W 10.4 mph16.7 kmh 30.16 in1021.3 mb - 0.00 in0.0 mm 0.00 in0.0 mm
03:20 PM 58.0°F14.4°C 42.4°F5.8°C 56% 4.6 mph WNW7.4 kmh WNW 8.1 mph13.0 kmh 30.16 in1021.3 mb - 0.00 in0.0 mm 0.00 in0.0 mm
03:25 PM 58.6°F14.8°C 41.1°F5.1°C 52% 9.2 mph WSW14.8 kmh WSW 11.5 mph18.5 kmh 30.17 in1021.7 mb - 0.00 in0.0 mm 0.00 in0.0 mm
03:30 PM 57.7°F14.3°C 40.2°F4.6°C 52% 6.9 mph WSW11.1 kmh WSW 10.4 mph16.7 kmh 30.16 in1021.3 mb - 0.00 in0.0 mm 0.00 in0.0 mm
03:35 PM 56.0°F13.3°C 39.1°F3.9°C 53% 3.5 mph SW5.6 kmh SW 4.6 mph7.4 kmh 30.16 in1021.3 mb - 0.00 in0.0 mm 0.00 in0.0 mm
03:40 PM 57.4°F14.1°C 41.4°F5.2°C 55% 6.9 mph SW11.1 kmh SW 11.5 mph18.5 kmh 30.16 in1021.3 mb - 0.00 in0.0 mm 0.00 in0.0 mm
03:45 PM 57.6°F14.2°C 40.1°F4.5°C 52% 4.6 mph SW7.4 kmh SW 11.5 mph18.5 kmh 30.16 in1021.3 mb - 0.00 in0.0 mm 0.00 in0.0 mm
03:50 PM 56.3°F13.5°C 39.4°F4.1°C 53% 5.8 mph WSW9.3 kmh WSW 8.1 mph13.0 kmh 30.17 in1021.7 mb - 0.00 in0.0 mm 0.00 in0.0 mm
03:55 PM 54.5°F12.5°C 37.7°F3.2°C 53% 4.6 mph WSW7.4 kmh WSW 6.9 mph11.1 kmh 30.17 in1021.7 mb - 0.00 in0.0 mm 0.00 in0.0 mm
04:00 PM 54.0°F12.2°C 40.0°F4.4°C 59% 2.3 mph W3.7 kmh W 3.5 mph5.6 kmh 30.17 in1021.7 mb - 0.00 in0.0 mm 0.00 in0.0 mm
04:10 PM 56.5°F13.6°C 38.5°F3.6°C 51% 2.3 mph SW3.7 kmh SW 3.5 mph5.6 kmh 30.16 in1021.3 mb - 0.00 in0.0 mm 0.00 in0.0 mm
04:15 PM 57.2°F14.0°C 38.2°F3.4°C 49% 8.1 mph W13.0 kmh W 11.5 mph18.5 kmh 30.16 in1021.3 mb - 0.00 in0.0 mm 0.00 in0.0 mm
04:20 PM 56.9°F13.8°C 39.0°F3.9°C 51% 4.6 mph SW7.4 kmh SW 11.5 mph18.5 kmh 30.16 in1021.3 mb - 0.00 in0.0 mm 0.00 in0.0 mm
04:25 PM 57.3°F14.1°C 39.3°F4.1°C 51% 6.9 mph SW11.1 kmh SW 10.4 mph16.7 kmh 30.16 in1021.3 mb - 0.00 in0.0 mm 0.00 in0.0 mm
04:30 PM 57.0°F13.9°C 38.0°F3.3°C 49% 8.1 mph SW13.0 kmh SW 10.4 mph16.7 kmh 30.16 in1021.3 mb - 0.00 in0.0 mm 0.00 in0.0 mm
04:35 PM 56.7°F13.7°C 38.3°F3.5°C 50% 6.9 mph WNW11.1 kmh WNW 8.1 mph13.0 kmh 30.16 in1021.3 mb - 0.00 in0.0 mm 0.00 in0.0 mm
04:40 PM 56.5°F13.6°C 40.0°F4.4°C 54% 5.8 mph W9.3 kmh W 8.1 mph13.0 kmh 30.16 in1021.3 mb - 0.00 in0.0 mm 0.00 in0.0 mm
04:45 PM 56.2°F13.4°C 39.8°F4.3°C 54% 4.6 mph WSW7.4 kmh WSW 6.9 mph11.1 kmh 30.16 in1021.3 mb - 0.00 in0.0 mm 0.00 in0.0 mm
04:50 PM 56.4°F13.6°C 39.5°F4.2°C 53% 4.6 mph SW7.4 kmh SW 6.9 mph11.1 kmh 30.16 in1021.3 mb - 0.00 in0.0 mm 0.00 in0.0 mm
04:55 PM 56.9°F13.8°C 39.5°F4.2°C 52% 8.1 mph WSW13.0 kmh WSW 11.5 mph18.5 kmh 30.17 in1021.7 mb - 0.00 in0.0 mm 0.00 in0.0 mm
05:00 PM 56.4°F13.6°C 39.5°F4.2°C 53% 5.8 mph WNW9.3 kmh WNW 9.2 mph14.8 kmh 30.16 in1021.3 mb - 0.00 in0.0 mm 0.00 in0.0 mm
05:10 PM 56.5°F13.6°C 39.6°F4.2°C 53% 4.6 mph WSW7.4 kmh WSW 9.2 mph14.8 kmh 30.16 in1021.3 mb - 0.00 in0.0 mm 0.00 in0.0 mm
05:15 PM 56.6°F13.7°C 37.6°F3.1°C 49% 9.2 mph WSW14.8 kmh WSW 11.5 mph18.5 kmh 30.16 in1021.3 mb - 0.00 in0.0 mm 0.00 in0.0 mm
05:20 PM 56.2°F13.4°C 38.3°F3.5°C 51% 5.8 mph WNW9.3 kmh WNW 9.2 mph14.8 kmh 30.16 in1021.3 mb - 0.00 in0.0 mm 0.00 in0.0 mm
05:25 PM 56.0°F13.3°C 38.1°F3.4°C 51% 9.2 mph WNW14.8 kmh WNW 10.4 mph16.7 kmh 30.17 in1021.7 mb - 0.00 in0.0 mm 0.00 in0.0 mm
05:30 PM 55.9°F13.3°C 39.0°F3.9°C 53% 3.5 mph WNW5.6 kmh WNW 8.1 mph13.0 kmh 30.16 in1021.3 mb - 0.00 in0.0 mm 0.00 in0.0 mm
05:35 PM 56.1°F13.4°C 38.2°F3.4°C 51% 5.8 mph W9.3 kmh W 9.2 mph14.8 kmh 30.16 in1021.3 mb - 0.00 in0.0 mm 0.00 in0.0 mm
05:40 PM 56.2°F13.4°C 37.2°F2.9°C 49% 8.1 mph W13.0 kmh W 11.5 mph18.5 kmh 30.16 in1021.3 mb - 0.00 in0.0 mm 0.00 in0.0 mm
05:45 PM 55.8°F13.2°C 36.9°F2.7°C 49% 6.9 mph WNW11.1 kmh WNW 11.5 mph18.5 kmh 30.16 in1021.3 mb - 0.00 in0.0 mm 0.00 in0.0 mm
05:50 PM 55.7°F13.2°C 37.8°F3.2°C 51% 4.6 mph W7.4 kmh W 6.9 mph11.1 kmh 30.16 in1021.3 mb - 0.00 in0.0 mm 0.00 in0.0 mm
05:55 PM 55.6°F13.1°C 37.7°F3.2°C 51% 5.8 mph WSW9.3 kmh WSW 9.2 mph14.8 kmh 30.16 in1021.3 mb - 0.00 in0.0 mm 0.00 in0.0 mm
06:00 PM 55.7°F13.2°C 36.8°F2.7°C 49% 6.9 mph W11.1 kmh W 10.4 mph16.7 kmh 30.17 in1021.7 mb - 0.00 in0.0 mm 0.00 in0.0 mm
06:10 PM 55.2°F12.9°C 37.4°F3.0°C 51% 6.9 mph WSW11.1 kmh WSW 10.4 mph16.7 kmh 30.17 in1021.7 mb - 0.00 in0.0 mm 0.00 in0.0 mm
06:15 PM 55.1°F12.8°C 36.8°F2.7°C 50% 5.8 mph SW9.3 kmh SW 6.9 mph11.1 kmh 30.17 in1021.7 mb - 0.00 in0.0 mm 0.00 in0.0 mm
06:20 PM 54.9°F12.7°C 37.6°F3.1°C 52% 5.8 mph WSW9.3 kmh WSW 6.9 mph11.1 kmh 30.17 in1021.7 mb - 0.00 in0.0 mm 0.00 in0.0 mm
06:25 PM 55.1°F12.8°C 36.7°F2.6°C 50% 4.6 mph WSW7.4 kmh WSW 8.1 mph13.0 kmh 30.17 in1021.7 mb - 0.00 in0.0 mm 0.00 in0.0 mm
06:30 PM 55.1°F12.8°C 35.8°F2.1°C 48% 5.8 mph WSW9.3 kmh WSW 5.8 mph9.3 kmh 30.17 in1021.7 mb - 0.00 in0.0 mm 0.00 in0.0 mm
06:35 PM 55.4°F13.0°C 36.0°F2.2°C 48% 6.9 mph W11.1 kmh W 8.1 mph13.0 kmh 30.17 in1021.7 mb - 0.00 in0.0 mm 0.00 in0.0 mm
06:40 PM 55.4°F13.0°C 37.0°F2.8°C 50% 3.5 mph WSW5.6 kmh WSW 3.5 mph5.6 kmh 30.17 in1021.7 mb - 0.00 in0.0 mm 0.00 in0.0 mm
06:45 PM 55.7°F13.2°C 37.3°F2.9°C 50% 3.5 mph SW5.6 kmh SW 3.5 mph5.6 kmh 30.17 in1021.7 mb - 0.00 in0.0 mm 0.00 in0.0 mm
06:50 PM 55.4°F13.0°C 37.5°F3.1°C 51% 4.6 mph SW7.4 kmh SW 8.1 mph13.0 kmh 30.17 in1021.7 mb - 0.00 in0.0 mm 0.00 in0.0 mm
06:55 PM 54.8°F12.7°C 37.5°F3.1°C 52% 4.6 mph SW7.4 kmh SW 6.9 mph11.1 kmh 30.17 in1021.7 mb - 0.00 in0.0 mm 0.00 in0.0 mm
07:00 PM 54.6°F12.6°C 38.7°F3.7°C 55% 4.6 mph SW7.4 kmh SW 6.9 mph11.1 kmh 30.17 in1021.7 mb - 0.00 in0.0 mm 0.00 in0.0 mm
07:10 PM 53.6°F12.0°C 37.3°F2.9°C 54% 3.5 mph SW5.6 kmh SW 3.5 mph5.6 kmh 30.16 in1021.3 mb - 0.00 in0.0 mm 0.00 in0.0 mm
07:15 PM 53.5°F11.9°C 38.6°F3.7°C 57% 2.3 mph SSW3.7 kmh SSW 3.5 mph5.6 kmh 30.17 in1021.7 mb - 0.00 in0.0 mm 0.00 in0.0 mm
07:20 PM 53.4°F11.9°C 39.0°F3.9°C 58% 2.3 mph SSW3.7 kmh SSW 3.5 mph5.6 kmh 30.17 in1021.7 mb - 0.00 in0.0 mm 0.00 in0.0 mm
07:25 PM 53.2°F11.8°C 39.2°F4.0°C 59% 2.3 mph SSW3.7 kmh SSW 3.5 mph5.6 kmh 30.17 in1021.7 mb - 0.00 in0.0 mm 0.00 in0.0 mm
07:30 PM 52.6°F11.4°C 39.5°F4.2°C 61% 1.2 mph SW1.9 kmh SW 2.3 mph3.7 kmh 30.17 in1021.7 mb - 0.00 in0.0 mm 0.00 in0.0 mm
07:35 PM 52.3°F11.3°C 39.7°F4.3°C 62% 1.2 mph SW1.9 kmh SW 2.3 mph3.7 kmh 30.16 in1021.3 mb - 0.00 in0.0 mm 0.00 in0.0 mm
07:40 PM 52.6°F11.4°C 39.5°F4.2°C 61% 1.2 mph SW1.9 kmh SW 3.5 mph5.6 kmh 30.17 in1021.7 mb - 0.00 in0.0 mm 0.00 in0.0 mm
07:45 PM 52.9°F11.6°C 39.8°F4.3°C 61% 1.2 mph SW1.9 kmh SW 2.3 mph3.7 kmh 30.16 in1021.3 mb - 0.00 in0.0 mm 0.00 in0.0 mm
07:50 PM 53.1°F11.7°C 39.1°F3.9°C 59% 1.2 mph SW1.9 kmh SW 2.3 mph3.7 kmh 30.16 in1021.3 mb - 0.00 in0.0 mm 0.00 in0.0 mm
07:55 PM 52.5°F11.4°C 39.4°F4.1°C 61% Calm Calm -- 30.16 in1021.3 mb - 0.00 in0.0 mm 0.00 in0.0 mm
08:00 PM 52.4°F11.3°C 39.8°F4.3°C 62% 1.2 mph SW1.9 kmh SW 2.3 mph3.7 kmh 30.16 in1021.3 mb - 0.00 in0.0 mm 0.00 in0.0 mm
08:10 PM 52.7°F11.5°C 39.2°F4.0°C 60% Calm Calm -- 30.16 in1021.3 mb - 0.00 in0.0 mm 0.00 in0.0 mm
08:15 PM 52.9°F11.6°C 39.0°F3.9°C 59% Calm Calm 1.2 mph1.9 kmh 30.16 in1021.3 mb - 0.00 in0.0 mm 0.00 in0.0 mm
08:20 PM 52.6°F11.4°C 39.1°F3.9°C 60% 1.2 mph SW1.9 kmh SW 2.3 mph3.7 kmh 30.16 in1021.3 mb - 0.00 in0.0 mm 0.00 in0.0 mm
08:25 PM 52.2°F11.2°C 39.5°F4.2°C 62% 1.2 mph SSW1.9 kmh SSW 2.3 mph3.7 kmh 30.16 in1021.3 mb - 0.00 in0.0 mm 0.00 in0.0 mm
08:30 PM 51.4°F10.8°C 40.4°F4.7°C 66% 1.2 mph SE1.9 kmh SE 2.3 mph3.7 kmh 30.16 in1021.3 mb - 0.00 in0.0 mm 0.00 in0.0 mm
08:35 PM 50.9°F10.5°C 39.9°F4.4°C 66% 2.3 mph SE3.7 kmh SE 2.3 mph3.7 kmh 30.16 in1021.3 mb - 0.00 in0.0 mm 0.00 in0.0 mm
08:40 PM 50.4°F10.2°C 39.5°F4.2°C 66% 1.2 mph SE1.9 kmh SE 1.2 mph1.9 kmh 30.16 in1021.3 mb - 0.00 in0.0 mm 0.00 in0.0 mm
08:45 PM 49.2°F9.6°C 40.2°F4.6°C 71% Calm Calm -- 30.16 in1021.3 mb - 0.00 in0.0 mm 0.00 in0.0 mm
08:50 PM 48.3°F9.1°C 40.1°F4.5°C 73% 1.2 mph SE1.9 kmh SE 1.2 mph1.9 kmh 30.16 in1021.3 mb - 0.00 in0.0 mm 0.00 in0.0 mm
08:55 PM 48.4°F9.1°C 39.8°F4.3°C 72% 1.2 mph SE1.9 kmh SE 2.3 mph3.7 kmh 30.17 in1021.7 mb - 0.00 in0.0 mm 0.00 in0.0 mm
09:00 PM 48.4°F9.1°C 39.4°F4.1°C 71% 1.2 mph SE1.9 kmh SE 1.2 mph1.9 kmh 30.16 in1021.3 mb - 0.00 in0.0 mm 0.00 in0.0 mm
09:10 PM 47.6°F8.7°C 39.0°F3.9°C 72% 1.2 mph SE1.9 kmh SE 1.2 mph1.9 kmh 30.17 in1021.7 mb - 0.00 in0.0 mm 0.00 in0.0 mm
09:15 PM 47.5°F8.6°C 38.9°F3.8°C 72% Calm Calm 1.2 mph1.9 kmh 30.16 in1021.3 mb - 0.00 in0.0 mm 0.00 in0.0 mm
09:20 PM 46.8°F8.2°C 38.2°F3.4°C 72% 1.2 mph SE1.9 kmh SE 1.2 mph1.9 kmh 30.16 in1021.3 mb - 0.00 in0.0 mm 0.00 in0.0 mm
09:25 PM 46.6°F8.1°C 38.0°F3.3°C 72% 1.2 mph SE1.9 kmh SE 2.3 mph3.7 kmh 30.16 in1021.3 mb - 0.00 in0.0 mm 0.00 in0.0 mm
09:30 PM 46.7°F8.2°C 37.7°F3.2°C 71% 2.3 mph SE3.7 kmh SE 3.5 mph5.6 kmh 30.16 in1021.3 mb - 0.00 in0.0 mm 0.00 in0.0 mm
09:35 PM 46.8°F8.2°C 37.5°F3.1°C 70% 1.2 mph SE1.9 kmh SE 2.3 mph3.7 kmh 30.16 in1021.3 mb - 0.00 in0.0 mm 0.00 in0.0 mm
09:40 PM 45.8°F7.7°C 37.3°F2.9°C 72% 1.2 mph SE1.9 kmh SE 2.3 mph3.7 kmh 30.16 in1021.3 mb - 0.00 in0.0 mm 0.00 in0.0 mm
09:45 PM 45.5°F7.5°C 37.0°F2.8°C 72% 1.2 mph SE1.9 kmh SE 2.3 mph3.7 kmh 30.16 in1021.3 mb - 0.00 in0.0 mm 0.00 in0.0 mm
09:50 PM 45.9°F7.7°C 37.0°F2.8°C 71% 2.3 mph SE3.7 kmh SE 2.3 mph3.7 kmh 30.16 in1021.3 mb - 0.00 in0.0 mm 0.00 in0.0 mm
09:55 PM 46.1°F7.8°C 37.2°F2.9°C 71% 1.2 mph SE1.9 kmh SE 2.3 mph3.7 kmh 30.16 in1021.3 mb - 0.00 in0.0 mm 0.00 in0.0 mm
10:00 PM 46.0°F7.8°C 37.1°F2.8°C 71% 1.2 mph SE1.9 kmh SE 2.3 mph3.7 kmh 30.16 in1021.3 mb - 0.00 in0.0 mm 0.00 in0.0 mm
10:10 PM 45.1°F7.3°C 36.6°F2.6°C 72% Calm Calm -- 30.16 in1021.3 mb - 0.00 in0.0 mm 0.00 in0.0 mm
10:15 PM 44.4°F6.9°C 36.7°F2.6°C 74% Calm Calm -- 30.16 in1021.3 mb - 0.00 in0.0 mm 0.00 in0.0 mm
10:20 PM 44.4°F6.9°C 36.6°F2.6°C 74% Calm Calm -- 30.16 in1021.3 mb - 0.00 in0.0 mm 0.00 in0.0 mm
10:25 PM 43.9°F6.6°C 36.5°F2.5°C 75% Calm Calm 1.2 mph1.9 kmh 30.16 in1021.3 mb - 0.00 in0.0 mm 0.00 in0.0 mm
10:30 PM 44.6°F7.0°C 36.8°F2.7°C 74% 1.2 mph SE1.9 kmh SE 1.2 mph1.9 kmh 30.16 in1021.3 mb - 0.00 in0.0 mm 0.00 in0.0 mm
10:35 PM 45.1°F7.3°C 37.3°F2.9°C 74% 1.2 mph SE1.9 kmh SE 2.3 mph3.7 kmh 30.16 in1021.3 mb - 0.00 in0.0 mm 0.00 in0.0 mm
10:40 PM 45.4°F7.4°C 37.6°F3.1°C 74% 2.3 mph SE3.7 kmh SE 3.5 mph5.6 kmh 30.15 in1021.0 mb - 0.00 in0.0 mm 0.00 in0.0 mm
10:45 PM 46.0°F7.8°C 38.1°F3.4°C 74% 2.3 mph SE3.7 kmh SE 3.5 mph5.6 kmh 30.15 in1021.0 mb - 0.00 in0.0 mm 0.00 in0.0 mm
10:50 PM 46.4°F8.0°C 38.2°F3.4°C 73% 3.5 mph SE5.6 kmh SE 3.5 mph5.6 kmh 30.15 in1021.0 mb - 0.00 in0.0 mm 0.00 in0.0 mm
10:55 PM 46.3°F7.9°C 38.4°F3.6°C 74% 2.3 mph SE3.7 kmh SE 3.5 mph5.6 kmh 30.15 in1021.0 mb - 0.00 in0.0 mm 0.00 in0.0 mm
11:00 PM 46.2°F7.9°C 38.4°F3.6°C 74% 3.5 mph SE5.6 kmh SE 3.5 mph5.6 kmh 30.15 in1021.0 mb - 0.00 in0.0 mm 0.00 in0.0 mm
11:10 PM 46.5°F8.1°C 38.6°F3.7°C 74% 2.3 mph SE3.7 kmh SE 3.5 mph5.6 kmh 30.15 in1021.0 mb - 0.00 in0.0 mm 0.00 in0.0 mm
11:15 PM 46.2°F7.9°C 38.4°F3.6°C 74% 2.3 mph SE3.7 kmh SE 3.5 mph5.6 kmh 30.15 in1021.0 mb - 0.00 in0.0 mm 0.00 in0.0 mm
11:20 PM 46.1°F7.8°C 38.6°F3.7°C 75% 2.3 mph SE3.7 kmh SE 3.5 mph5.6 kmh 30.15 in1021.0 mb - 0.00 in0.0 mm 0.00 in0.0 mm
11:25 PM 46.4°F8.0°C 38.6°F3.7°C 74% 2.3 mph SE3.7 kmh SE 3.5 mph5.6 kmh 30.15 in1021.0 mb - 0.00 in0.0 mm 0.00 in0.0 mm
11:30 PM 46.5°F8.1°C 38.6°F3.7°C 74% 2.3 mph SE3.7 kmh SE 2.3 mph3.7 kmh 30.15 in1021.0 mb - 0.00 in0.0 mm 0.00 in0.0 mm
11:35 PM 46.6°F8.1°C 38.8°F3.8°C 74% 2.3 mph SE3.7 kmh SE 3.5 mph5.6 kmh 30.15 in1021.0 mb - 0.00 in0.0 mm 0.00 in0.0 mm
11:40 PM 46.6°F8.1°C 38.8°F3.8°C 74% 2.3 mph SE3.7 kmh SE 3.5 mph5.6 kmh 30.15 in1021.0 mb - 0.00 in0.0 mm 0.00 in0.0 mm
11:45 PM 46.3°F7.9°C 38.2°F3.4°C 73% 2.3 mph SE3.7 kmh SE 3.5 mph5.6 kmh 30.15 in1021.0 mb - 0.00 in0.0 mm 0.00 in0.0 mm
11:50 PM 46.0°F7.8°C 38.2°F3.4°C 74% 3.5 mph SE5.6 kmh SE 6.9 mph11.1 kmh 30.15 in1021.0 mb - 0.00 in0.0 mm 0.00 in0.0 mm
11:55 PM 45.9°F7.7°C 37.8°F3.2°C 73% 3.5 mph SE5.6 kmh SE 3.5 mph5.6 kmh 30.14 in1020.7 mb - 0.00 in0.0 mm 0.00 in0.0 mm